Time;durP1;ratioP1;P1;durP2;ratioP2;P2;SDS_P1;SDS_P2;PMS_P1;PMS_P2;Temp;Humidity;BMP_temperature;BMP_pressure;BME280_temperature;BME280_humidity;BME280_pressure;Samples;Min_cycle;Max_cycle;Signal;HPM_P1;HPM_P2
2021/05/11 00:00:45;;;;;;;8.10;1.38;;;;;;;;;;4932809;28;20501;-59
2021/05/11 00:03:11;;;;;;;4.03;1.30;;;;;;;;;;4933097;28;20067;-61
2021/05/11 00:05:37;;;;;;;3.85;1.13;;;;;;;;;;4932398;28;20062;-60
2021/05/11 00:08:03;;;;;;;5.50;1.10;;;;;;;;;;4926879;28;20670;-62
2021/05/11 00:10:28;;;;;;;2.97;1.27;;;;;;;;;;4931082;28;20051;-61
2021/05/11 00:12:55;;;;;;;4.35;1.45;;;;;;;;;;4931883;28;20058;-60
2021/05/11 00:15:21;;;;;;;4.38;1.45;;;;;;;;;;4933510;28;20074;-61
2021/05/11 00:17:47;;;;;;;4.25;1.55;;;;;;;;;;4931814;28;20051;-61
2021/05/11 00:20:13;;;;;;;3.97;1.27;;;;;;;;;;4934338;28;20478;-61
2021/05/11 00:22:39;;;;;;;2.90;1.25;;;;;;;;;;4931467;28;20038;-61
2021/05/11 00:25:06;;;;;;;6.45;1.33;;;;;;;;;;4932416;28;20051;-61
2021/05/11 00:27:32;;;;;;;3.40;1.30;;;;;;;;;;4932864;28;20166;-61
2021/05/11 00:29:57;;;;;;;3.35;1.27;;;;;;;;;;4933370;28;20539;-61
2021/05/11 00:32:23;;;;;;;3.83;1.60;;;;;;;;;;4933754;28;20043;-62
2021/05/11 00:34:49;;;;;;;5.65;1.27;;;;;;;;;;4924617;28;20093;-60
2021/05/11 00:37:15;;;;;;;3.97;1.40;;;;;;;;;;4934031;28;20114;-61
2021/05/11 00:39:41;;;;;;;3.55;1.20;;;;;;;;;;4932164;28;20043;-60
2021/05/11 00:42:07;;;;;;;5.18;1.13;;;;;;;;;;4932416;28;20130;-60
2021/05/11 00:44:33;;;;;;;4.25;1.27;;;;;;;;;;4930259;28;20059;-61
2021/05/11 00:47:04;;;;;;;5.80;1.60;;;;;;;;;;4932773;28;20672;-61
2021/05/11 00:49:31;;;;;;;6.15;1.60;;;;;;;;;;4933789;28;20055;-61
2021/05/11 00:51:57;;;;;;;5.38;1.40;;;;;;;;;;4935852;28;20042;-60
2021/05/11 00:54:24;;;;;;;4.25;1.40;;;;;;;;;;4938088;28;20409;-61
2021/05/11 00:56:50;;;;;;;5.53;1.38;;;;;;;;;;4939330;28;20043;-61
2021/05/11 00:59:18;;;;;;;7.57;1.35;;;;;;;;;;4939367;28;20046;-60
2021/05/11 01:01:44;;;;;;;7.97;1.38;;;;;;;;;;4937256;28;20055;-61
2021/05/11 01:04:10;;;;;;;5.15;1.30;;;;;;;;;;4936487;28;20070;-61
2021/05/11 01:06:36;;;;;;;4.97;1.98;;;;;;;;;;4937175;28;20407;-60
2021/05/11 01:09:02;;;;;;;6.30;1.40;;;;;;;;;;4937209;28;20675;-60
2021/05/11 01:11:27;;;;;;;3.75;1.40;;;;;;;;;;4936646;28;20102;-61
2021/05/11 01:13:54;;;;;;;3.03;1.40;;;;;;;;;;4937664;28;20043;-60
2021/05/11 01:16:20;;;;;;;5.78;1.45;;;;;;;;;;4937918;28;20047;-60
2021/05/11 01:18:49;;;;;;;7.53;1.70;;;;;;;;;;4932303;28;20719;-60
2021/05/11 01:26:32;;;;;;;3.50;1.30;;;;;;;;;;4938537;28;20050;-60
2021/05/11 01:29:14;;;;;;;3.25;1.20;;;;;;;;;;4937109;28;20097;-60
2021/05/11 01:32:07;;;;;;;4.45;1.40;;;;;;;;;;4936166;28;20050;-62
2021/05/11 01:45:52;;;;;;;3.35;1.20;;;;;;;;;;4935371;28;20055;-60
2021/05/11 01:48:26;;;;;;;2.67;1.08;;;;;;;;;;4938362;28;20043;-61
2021/05/11 02:23:02;;;;;;;5.65;1.38;;;;;;;;;;4935504;28;20166;-59
2021/05/11 02:25:28;;;;;;;5.03;1.10;;;;;;;;;;4935409;28;20127;-60
2021/05/11 02:27:54;;;;;;;3.40;1.30;;;;;;;;;;4935115;28;20039;-60
2021/05/11 02:30:20;;;;;;;11.13;1.10;;;;;;;;;;4935395;28;20058;-61
2021/05/11 02:32:46;;;;;;;6.47;1.23;;;;;;;;;;4936508;28;20043;-61
2021/05/11 02:35:13;;;;;;;4.13;1.20;;;;;;;;;;4936015;28;20039;-61
2021/05/11 02:37:39;;;;;;;4.75;1.02;;;;;;;;;;4936216;28;20077;-62
2021/05/11 02:40:07;;;;;;;3.85;1.10;;;;;;;;;;4935532;28;20039;-61
2021/05/11 02:42:36;;;;;;;6.07;1.00;;;;;;;;;;4935974;28;20047;-60
2021/05/11 02:45:03;;;;;;;10.05;5.68;;;;;;;;;;4934305;28;20039;-58
2021/05/11 02:47:29;;;;;;;4.95;1.88;;;;;;;;;;4934547;28;20043;-61
2021/05/11 02:49:54;;;;;;;6.18;1.40;;;;;;;;;;4928762;28;20098;-59
2021/05/11 02:52:20;;;;;;;6.68;1.40;;;;;;;;;;4934120;28;20130;-61
2021/05/11 02:54:46;;;;;;;8.45;1.50;;;;;;;;;;4934833;28;20047;-60
2021/05/11 02:57:12;;;;;;;4.50;1.50;;;;;;;;;;4933367;28;20043;-60
2021/05/11 02:59:39;;;;;;;7.43;1.50;;;;;;;;;;4926034;28;20138;-60
2021/05/11 03:02:05;;;;;;;4.95;1.40;;;;;;;;;;4934922;28;20074;-61
2021/05/11 03:04:31;;;;;;;8.88;1.50;;;;;;;;;;4932173;28;20682;-61
2021/05/11 03:06:57;;;;;;;5.50;1.35;;;;;;;;;;4934528;28;20337;-62
2021/05/11 03:09:24;;;;;;;7.38;1.90;;;;;;;;;;4934785;28;20055;-62
2021/05/11 03:11:50;;;;;;;8.48;1.60;;;;;;;;;;4933824;28;20045;-61
2021/05/11 03:14:16;;;;;;;7.78;1.67;;;;;;;;;;4935209;28;20047;-62
2021/05/11 03:16:42;;;;;;;6.45;1.70;;;;;;;;;;4935461;28;20043;-61
2021/05/11 03:19:07;;;;;;;11.55;1.50;;;;;;;;;;4934620;28;20360;-60
2021/05/11 03:21:33;;;;;;;7.95;1.40;;;;;;;;;;4934511;28;20043;-61
2021/05/11 03:23:59;;;;;;;11.07;1.67;;;;;;;;;;4933037;28;20110;-61
2021/05/11 03:26:25;;;;;;;6.25;1.38;;;;;;;;;;4934495;28;20058;-61
2021/05/11 03:28:51;;;;;;;7.22;1.45;;;;;;;;;;4928757;28;20047;-62
2021/05/11 03:31:16;;;;;;;9.02;1.60;;;;;;;;;;4935519;28;20049;-60
2021/05/11 03:33:42;;;;;;;6.13;1.60;;;;;;;;;;4933472;28;20402;-63
2021/05/11 03:36:08;;;;;;;8.35;1.40;;;;;;;;;;4936877;28;20047;-62
2021/05/11 03:38:34;;;;;;;9.05;1.70;;;;;;;;;;4935240;28;20050;-62
2021/05/11 03:41:00;;;;;;;11.23;2.15;;;;;;;;;;4935634;28;20081;-62
2021/05/11 03:43:31;;;;;;;4.80;1.67;;;;;;;;;;4932454;28;20046;-62
2021/05/11 03:46:05;;;;;;;9.73;2.15;;;;;;;;;;4934467;28;20793;-60
2021/05/11 03:48:31;;;;;;;7.20;2.10;;;;;;;;;;4935507;28;20659;-61
2021/05/11 03:50:57;;;;;;;5.40;2.00;;;;;;;;;;4934842;28;20062;-60
2021/05/11 03:53:22;;;;;;;7.28;2.20;;;;;;;;;;4931919;28;20043;-59
2021/05/11 03:55:51;;;;;;;7.65;2.10;;;;;;;;;;4936599;28;20050;-61
2021/05/11 03:58:17;;;;;;;7.80;1.52;;;;;;;;;;4935686;28;20046;-61
2021/05/11 04:00:42;;;;;;;7.43;1.70;;;;;;;;;;4933498;28;20043;-61
2021/05/11 04:03:08;;;;;;;4.63;1.60;;;;;;;;;;4933542;28;20054;-61
2021/05/11 04:05:36;;;;;;;7.78;1.50;;;;;;;;;;4933252;28;20628;-61
2021/05/11 04:08:02;;;;;;;9.90;1.60;;;;;;;;;;4932908;28;20038;-61
2021/05/11 04:10:42;;;;;;;6.72;1.55;;;;;;;;;;4934149;28;20063;-61
2021/05/11 04:18:29;;;;;;;6.85;1.50;;;;;;;;;;4932812;28;20097;-61
2021/05/11 04:20:55;;;;;;;8.43;1.70;;;;;;;;;;4925742;28;20039;-60
2021/05/11 04:23:21;;;;;;;7.15;2.00;;;;;;;;;;4932607;28;20130;-60
2021/05/11 04:25:47;;;;;;;6.47;2.35;;;;;;;;;;4924520;28;20478;-61
2021/05/11 04:28:13;;;;;;;8.50;2.33;;;;;;;;;;4932152;28;20433;-61
2021/05/11 04:30:39;;;;;;;9.60;2.00;;;;;;;;;;4932876;29;20462;-61
2021/05/11 04:33:05;;;;;;;7.45;2.50;;;;;;;;;;4933122;28;20123;-60
2021/05/11 04:35:31;;;;;;;8.43;2.20;;;;;;;;;;4932460;28;20415;-61
2021/05/11 04:37:57;;;;;;;9.15;2.33;;;;;;;;;;4933866;28;20047;-61
2021/05/11 04:40:23;;;;;;;5.70;2.00;;;;;;;;;;4933890;28;20135;-61
2021/05/11 04:42:51;;;;;;;6.03;2.55;;;;;;;;;;4933063;28;20047;-61
2021/05/11 04:45:23;;;;;;;5.40;1.98;;;;;;;;;;4933719;28;20054;-61
2021/05/11 04:47:50;;;;;;;5.47;2.25;;;;;;;;;;4917727;28;20445;-60
2021/05/11 04:50:27;;;;;;;6.78;1.95;;;;;;;;;;4936370;28;20062;-59
2021/05/11 04:52:53;;;;;;;4.43;2.00;;;;;;;;;;4934411;28;20043;-60
2021/05/11 04:55:19;;;;;;;9.57;2.67;;;;;;;;;;4934628;28;20130;-60
2021/05/11 04:57:45;;;;;;;7.30;1.85;;;;;;;;;;4935356;28;20130;-60
2021/05/11 05:00:15;;;;;;;9.68;2.33;;;;;;;;;;4935664;28;20135;-61
2021/05/11 05:02:44;;;;;;;10.10;2.33;;;;;;;;;;4935522;28;20481;-59
2021/05/11 05:05:10;;;;;;;8.63;2.42;;;;;;;;;;4934232;28;20071;-58
2021/05/11 05:07:36;;;;;;;4.82;2.28;;;;;;;;;;4934234;28;20090;-57
2021/05/11 05:10:03;;;;;;;8.77;2.50;;;;;;;;;;4935787;28;20145;-60
2021/05/11 05:12:29;;;;;;;9.88;2.47;;;;;;;;;;4933307;28;20375;-60
2021/05/11 05:14:55;;;;;;;6.63;2.30;;;;;;;;;;4935183;28;20046;-59
2021/05/11 05:17:20;;;;;;;9.90;2.00;;;;;;;;;;4934595;28;20047;-60
2021/05/11 05:19:46;;;;;;;10.20;2.17;;;;;;;;;;4933708;28;20099;-59
2021/05/11 05:22:12;;;;;;;10.95;2.38;;;;;;;;;;4934675;28;20039;-59
2021/05/11 05:24:44;;;;;;;7.28;2.80;;;;;;;;;;4934369;28;20043;-60
2021/05/11 05:27:25;;;;;;;10.40;2.42;;;;;;;;;;4935962;28;20047;-59
2021/05/11 05:29:51;;;;;;;12.85;2.22;;;;;;;;;;4927532;28;20051;-58
2021/05/11 05:32:17;;;;;;;15.23;2.88;;;;;;;;;;4933876;28;20518;-59
2021/05/11 05:34:43;;;;;;;11.40;2.35;;;;;;;;;;4932525;28;20047;-60
2021/05/11 05:37:10;;;;;;;9.07;2.53;;;;;;;;;;4935156;28;20044;-61
2021/05/11 05:39:46;;;;;;;8.10;2.00;;;;;;;;;;4935491;28;20031;-59
2021/05/11 05:42:12;;;;;;;5.22;2.00;;;;;;;;;;4936985;28;20137;-60
2021/05/11 05:44:38;;;;;;;9.27;2.10;;;;;;;;;;4936442;28;20504;-60
2021/05/11 05:47:04;;;;;;;6.93;2.30;;;;;;;;;;4938792;28;20047;-61
2021/05/11 05:49:34;;;;;;;8.35;2.67;;;;;;;;;;4937770;28;20055;-60
2021/05/11 05:52:05;;;;;;;10.10;2.10;;;;;;;;;;4938022;28;20441;-60
2021/05/11 05:54:30;;;;;;;9.65;2.60;;;;;;;;;;4938413;28;20048;-60
2021/05/11 05:56:56;;;;;;;9.02;3.08;;;;;;;;;;4937716;28;20046;-60
2021/05/11 05:59:22;;;;;;;7.65;2.60;;;;;;;;;;4937423;28;20546;-58
2021/05/11 06:01:49;;;;;;;13.27;3.65;;;;;;;;;;4938821;28;20157;-58
2021/05/11 06:04:18;;;;;;;9.70;3.00;;;;;;;;;;4939897;28;20133;-59
2021/05/11 06:06:44;;;;;;;7.65;3.38;;;;;;;;;;4939286;28;20475;-58
2021/05/11 06:09:14;;;;;;;8.93;3.03;;;;;;;;;;4939182;28;20062;-61
2021/05/11 06:12:03;;;;;;;10.35;3.10;;;;;;;;;;4938234;28;20075;-58
2021/05/11 06:14:45;;;;;;;9.80;2.40;;;;;;;;;;4937453;28;20656;-59
2021/05/11 06:17:15;;;;;;;6.32;2.53;;;;;;;;;;4936790;28;20043;-60
2021/05/11 06:19:42;;;;;;;5.95;2.80;;;;;;;;;;4937031;28;20039;-59
2021/05/11 06:22:08;;;;;;;7.15;2.70;;;;;;;;;;4940079;28;20031;-59
2021/05/11 06:24:35;;;;;;;7.68;2.67;;;;;;;;;;4938351;28;20062;-57
2021/05/11 06:27:01;;;;;;;4.90;2.42;;;;;;;;;;4940248;28;20043;-58
2021/05/11 06:29:28;;;;;;;5.93;2.72;;;;;;;;;;4939016;28;20051;-58
2021/05/11 06:31:54;;;;;;;8.82;2.88;;;;;;;;;;4941057;28;20043;-58
2021/05/11 06:34:20;;;;;;;8.65;2.65;;;;;;;;;;4936475;28;20035;-59
2021/05/11 06:36:46;;;;;;;8.40;2.70;;;;;;;;;;4938192;28;20126;-58
2021/05/11 06:39:14;;;;;;;6.50;2.70;;;;;;;;;;4941663;28;20218;-59
2021/05/11 06:41:43;;;;;;;8.10;3.00;;;;;;;;;;4937474;28;20039;-59
2021/05/11 06:44:14;;;;;;;13.07;2.47;;;;;;;;;;4936830;28;20158;-60
2021/05/11 06:54:35;;;;;;;4.88;2.10;;;;;;;;;;4937153;28;20102;-58
2021/05/11 06:57:00;;;;;;;6.05;1.88;;;;;;;;;;4937299;28;20031;-59
2021/05/11 06:59:27;;;;;;;5.13;1.92;;;;;;;;;;4935933;28;20039;-58
2021/05/11 07:01:53;;;;;;;7.85;1.90;;;;;;;;;;4934987;28;20047;-59
2021/05/11 07:04:18;;;;;;;5.82;2.10;;;;;;;;;;4935307;28;20054;-59
2021/05/11 07:06:44;;;;;;;4.38;2.13;;;;;;;;;;4937381;28;20545;-59
2021/05/11 07:09:14;;;;;;;3.85;1.83;;;;;;;;;;4935391;28;20059;-60
2021/05/11 07:14:05;;;;;;;5.07;2.15;;;;;;;;;;4936428;28;20053;-59
2021/05/11 07:16:33;;;;;;;7.18;2.40;;;;;;;;;;4936846;28;20055;-59
2021/05/11 07:18:59;;;;;;;4.20;2.20;;;;;;;;;;4936095;28;20532;-59
2021/05/11 07:21:25;;;;;;;7.22;2.50;;;;;;;;;;4936319;28;20035;-58
2021/05/11 07:23:51;;;;;;;3.90;1.60;;;;;;;;;;4935931;28;20113;-59
2021/05/11 07:31:29;;;;;;;5.95;2.00;;;;;;;;;;4934971;28;20047;-59
2021/05/11 07:33:57;;;;;;;5.10;2.10;;;;;;;;;;4934573;28;20047;-58
2021/05/11 07:36:23;;;;;;;4.38;2.00;;;;;;;;;;4935389;28;20058;-58
2021/05/11 07:38:49;;;;;;;3.95;1.88;;;;;;;;;;4936402;28;20034;-60
2021/05/11 07:41:15;;;;;;;4.88;1.90;;;;;;;;;;4936668;28;20094;-59
2021/05/11 07:43:44;;;;;;;5.22;2.17;;;;;;;;;;4935715;28;20039;-58
2021/05/11 07:46:33;;;;;;;4.72;2.20;;;;;;;;;;4935108;28;20098;-59
2021/05/11 07:52:11;;;;;;;5.32;2.30;;;;;;;;;;4934652;28;20821;-59
2021/05/11 08:10:31;;;;;;;3.40;1.38;;;;;;;;;;4935649;28;20613;-60
2021/05/11 08:15:44;;;;;;;4.18;1.60;;;;;;;;;;4934773;28;20071;-60
2021/05/11 08:18:19;;;;;;;4.40;1.63;;;;;;;;;;4934861;28;20506;-59
2021/05/11 08:29:17;;;;;;;3.40;1.33;;;;;;;;;;4933372;28;20180;-60
2021/05/11 08:31:43;;;;;;;2.60;1.20;;;;;;;;;;4934899;28;20081;-59
2021/05/11 08:34:09;;;;;;;3.55;1.60;;;;;;;;;;4936886;28;20047;-60
2021/05/11 08:36:35;;;;;;;4.05;1.67;;;;;;;;;;4933531;28;20055;-60
2021/05/11 08:39:01;;;;;;;4.15;1.70;;;;;;;;;;4936357;29;20055;-60
2021/05/11 08:41:27;;;;;;;3.75;1.50;;;;;;;;;;4934393;28;20090;-59
2021/05/11 08:43:53;;;;;;;3.75;1.38;;;;;;;;;;4935204;29;20035;-58
2021/05/11 08:46:19;;;;;;;3.35;1.38;;;;;;;;;;4934338;28;20532;-59
2021/05/11 08:48:46;;;;;;;3.70;1.50;;;;;;;;;;4935292;29;20042;-59
2021/05/11 08:51:26;;;;;;;3.08;1.35;;;;;;;;;;4935259;28;20054;-60
2021/05/11 09:07:41;;;;;;;2.80;1.10;;;;;;;;;;4932677;28;20039;-58
2021/05/11 09:24:54;;;;;;;3.22;1.20;;;;;;;;;;4939745;28;20054;-60
2021/05/11 09:26:59;;;;;;;2.90;1.15;;;;;;;;;;4933900;29;20050;-60
2021/05/11 09:56:55;;;;;;;3.95;1.70;;;;;;;;;;4935869;28;20093;-58
2021/05/11 10:39:03;;;;;;;4.20;1.60;;;;;;;;;;4936117;29;20098;-59
2021/05/11 10:46:53;;;;;;;;;;;;;;;;;;4934148;28;20040;-59
2021/05/11 10:49:29;;;;;;;4.22;1.55;;;;;;;;;;4934070;28;19922;-60
2021/05/11 10:52:05;;;;;;;4.65;1.75;;;;;;;;;;4936415;29;20079;-60
2021/05/11 10:54:35;;;;;;;5.60;1.60;;;;;;;;;;4939020;28;20399;-59
2021/05/11 10:57:02;;;;;;;4.07;2.00;;;;;;;;;;4937811;29;20035;-60
2021/05/11 11:02:14;;;;;;;3.30;1.50;;;;;;;;;;4936140;29;20114;-60
2021/05/11 11:04:45;;;;;;;3.67;1.80;;;;;;;;;;4934184;28;20051;-60
2021/05/11 11:07:11;;;;;;;4.90;1.75;;;;;;;;;;4935099;28;20054;-61
2021/05/11 11:09:38;;;;;;;3.83;2.00;;;;;;;;;;4936061;28;20638;-60
2021/05/11 11:12:05;;;;;;;4.00;2.08;;;;;;;;;;4936133;28;20037;-61
2021/05/11 11:14:36;;;;;;;3.95;1.90;;;;;;;;;;4935005;28;20043;-61
2021/05/11 11:17:04;;;;;;;3.78;1.92;;;;;;;;;;4934639;28;20047;-60
2021/05/11 11:19:30;;;;;;;4.10;1.98;;;;;;;;;;4919896;29;20035;-60
2021/05/11 11:24:28;;;;;;;4.72;2.00;;;;;;;;;;4934389;28;20058;-61
2021/05/11 11:26:56;;;;;;;3.97;1.80;;;;;;;;;;4935419;29;20608;-61
2021/05/11 11:29:22;;;;;;;3.92;1.55;;;;;;;;;;4934827;29;20183;-60
2021/05/11 11:31:49;;;;;;;3.20;1.23;;;;;;;;;;4935995;29;21009;-60
2021/05/11 11:34:15;;;;;;;3.97;1.40;;;;;;;;;;4934665;28;20042;-61
2021/05/11 11:36:44;;;;;;;4.25;1.30;;;;;;;;;;4932841;28;20099;-61
2021/05/11 11:39:18;;;;;;;4.10;1.52;;;;;;;;;;4935712;29;20042;-60
2021/05/11 11:41:43;;;;;;;3.65;1.27;;;;;;;;;;4933709;29;20040;-59
2021/05/11 11:44:14;;;;;;;3.17;1.50;;;;;;;;;;4934898;29;20055;-60
2021/05/11 11:46:40;;;;;;;3.97;1.52;;;;;;;;;;4935341;29;20078;-61
2021/05/11 11:49:09;;;;;;;3.17;1.40;;;;;;;;;;4934206;29;20721;-59
2021/05/11 11:51:36;;;;;;;2.65;1.08;;;;;;;;;;4932825;28;20043;-60
2021/05/11 11:54:28;;;;;;;2.63;0.98;;;;;;;;;;4927509;29;20054;-61
2021/05/11 11:59:40;;;;;;;4.47;1.40;;;;;;;;;;4934453;28;20043;-60
2021/05/11 12:02:05;;;;;;;3.97;1.67;;;;;;;;;;4935734;28;20043;-60
2021/05/11 12:04:32;;;;;;;2.83;1.20;;;;;;;;;;4933210;28;20056;-60
2021/05/11 12:07:05;;;;;;;4.13;1.20;;;;;;;;;;4931931;29;20047;-59
2021/05/11 12:09:32;;;;;;;2.90;0.88;;;;;;;;;;4933475;28;20117;-59
2021/05/11 12:12:00;;;;;;;3.20;1.20;;;;;;;;;;4934955;28;20849;-59
2021/05/11 12:14:26;;;;;;;3.40;1.48;;;;;;;;;;4933940;28;20484;-59
2021/05/11 12:16:52;;;;;;;5.30;1.30;;;;;;;;;;4934560;29;20323;-59
2021/05/11 12:19:21;;;;;;;5.05;1.42;;;;;;;;;;4932554;28;20051;-60
2021/05/11 12:21:54;;;;;;;4.28;1.63;;;;;;;;;;4933009;28;20047;-58
2021/05/11 12:24:27;;;;;;;3.10;1.50;;;;;;;;;;4934211;28;20142;-58
2021/05/11 12:27:09;;;;;;;2.90;1.30;;;;;;;;;;4927320;28;22763;-60
2021/05/11 12:29:35;;;;;;;3.78;1.50;;;;;;;;;;4934351;29;20525;-59
2021/05/11 12:32:00;;;;;;;3.58;1.50;;;;;;;;;;4932437;29;20097;-59
2021/05/11 12:34:26;;;;;;;4.18;1.52;;;;;;;;;;4931665;28;20048;-60
2021/05/11 12:36:58;;;;;;;3.83;1.52;;;;;;;;;;4932959;28;20040;-58
2021/05/11 12:39:30;;;;;;;6.00;1.55;;;;;;;;;;4932953;28;20494;-60
2021/05/11 12:42:14;;;;;;;4.38;1.63;;;;;;;;;;4935066;28;20036;-61
2021/05/11 12:44:40;;;;;;;4.22;1.45;;;;;;;;;;4934508;28;20055;-59
2021/05/11 12:47:06;;;;;;;3.90;1.75;;;;;;;;;;4934683;29;20050;-59
2021/05/11 12:49:32;;;;;;;2.38;1.05;;;;;;;;;;4937357;28;20606;-58
2021/05/11 12:51:59;;;;;;;3.95;1.40;;;;;;;;;;4937586;29;20043;-59
2021/05/11 12:54:40;;;;;;;4.35;1.65;;;;;;;;;;4936195;28;20043;-58
2021/05/11 12:57:23;;;;;;;3.65;1.35;;;;;;;;;;4937122;28;20101;-59
2021/05/11 13:02:43;;;;;;;3.22;1.40;;;;;;;;;;4935868;28;20043;-58
2021/05/11 13:27:09;;;;;;;3.40;1.30;;;;;;;;;;4938593;29;20062;-59
2021/05/11 13:32:12;;;;;;;2.88;1.00;;;;;;;;;;4938987;29;20046;-59
2021/05/11 13:34:38;;;;;;;3.25;1.05;;;;;;;;;;4937779;29;20074;-58
2021/05/11 13:37:04;;;;;;;3.83;1.25;;;;;;;;;;4937166;29;20123;-60
2021/05/11 13:39:29;;;;;;;5.03;1.50;;;;;;;;;;4937907;28;20652;-59
2021/05/11 13:41:55;;;;;;;2.33;0.93;;;;;;;;;;4938885;29;20043;-60
2021/05/11 13:44:21;;;;;;;3.92;1.10;;;;;;;;;;4937120;28;20046;-59
2021/05/11 13:46:47;;;;;;;6.13;1.17;;;;;;;;;;4937343;29;20042;-60
2021/05/11 13:49:15;;;;;;;2.83;1.13;;;;;;;;;;4937831;29;20055;-59
2021/05/11 13:51:41;;;;;;;3.05;1.23;;;;;;;;;;4937692;28;20482;-59
2021/05/11 13:54:09;;;;;;;3.42;1.20;;;;;;;;;;4937119;29;20047;-59
2021/05/11 13:56:53;;;;;;;3.55;0.93;;;;;;;;;;4938160;28;20039;-58
2021/05/11 14:04:38;;;;;;;4.00;1.23;;;;;;;;;;4937535;28;20319;-60
2021/05/11 14:07:03;;;;;;;3.67;1.40;;;;;;;;;;4937646;28;20039;-59
2021/05/11 14:09:29;;;;;;;2.50;0.90;;;;;;;;;;4934779;28;20062;-58
2021/05/11 14:11:55;;;;;;;3.45;1.10;;;;;;;;;;4935316;28;20088;-59
2021/05/11 14:14:21;;;;;;;5.88;1.27;;;;;;;;;;4936557;29;20473;-59
2021/05/11 14:16:47;;;;;;;3.38;0.80;;;;;;;;;;4938017;28;20063;-60
2021/05/11 14:19:14;;;;;;;4.18;0.88;;;;;;;;;;4936813;29;20051;-59
2021/05/11 14:21:39;;;;;;;4.28;0.80;;;;;;;;;;4935133;28;20094;-59
2021/05/11 14:24:05;;;;;;;2.47;0.70;;;;;;;;;;4934385;29;20419;-60
2021/05/11 14:26:31;;;;;;;3.28;0.75;;;;;;;;;;4936003;28;20091;-58
2021/05/11 14:28:58;;;;;;;3.40;0.80;;;;;;;;;;4938450;29;20101;-60
2021/05/11 14:31:24;;;;;;;6.47;1.02;;;;;;;;;;4920869;28;20170;-58
2021/05/11 14:33:50;;;;;;;3.33;0.85;;;;;;;;;;4936325;29;20502;-60
2021/05/11 14:36:16;;;;;;;2.97;0.80;;;;;;;;;;4936446;29;20047;-59
2021/05/11 14:38:42;;;;;;;3.63;0.80;;;;;;;;;;4935075;29;20039;-59
2021/05/11 14:41:08;;;;;;;5.47;0.88;;;;;;;;;;4937096;28;20047;-60
2021/05/11 14:43:34;;;;;;;3.28;0.90;;;;;;;;;;4933791;28;20043;-60
2021/05/11 14:46:04;;;;;;;1.77;0.55;;;;;;;;;;4934150;28;20145;-59
2021/05/11 14:48:31;;;;;;;4.03;0.80;;;;;;;;;;4936292;28;20036;-60
2021/05/11 14:50:58;;;;;;;4.35;0.90;;;;;;;;;;4936451;29;20047;-60
2021/05/11 14:53:24;;;;;;;2.90;0.68;;;;;;;;;;4936881;29;20035;-59
2021/05/11 14:55:50;;;;;;;3.28;0.60;;;;;;;;;;4937639;28;20139;-60
2021/05/11 14:58:16;;;;;;;2.80;1.15;;;;;;;;;;4937355;29;20075;-57
2021/05/11 15:00:42;;;;;;;3.42;0.70;;;;;;;;;;4936805;28;20153;-57
2021/05/11 15:03:11;;;;;;;3.67;0.70;;;;;;;;;;4938982;28;20098;-60
2021/05/11 15:05:37;;;;;;;2.38;0.60;;;;;;;;;;4935820;28;20051;-60
2021/05/11 15:08:03;;;;;;;5.93;0.90;;;;;;;;;;4937107;28;20042;-60
2021/05/11 15:10:29;;;;;;;4.75;0.73;;;;;;;;;;4936172;28;20059;-59
2021/05/11 15:12:55;;;;;;;2.25;0.80;;;;;;;;;;4936159;29;20057;-59
2021/05/11 15:15:21;;;;;;;2.30;0.70;;;;;;;;;;4935824;28;20130;-59
2021/05/11 15:20:14;;;;;;;1.27;0.50;;;;;;;;;;4937155;29;21876;-59
2021/05/11 15:22:41;;;;;;;3.13;0.52;;;;;;;;;;4935897;28;20043;-59
2021/05/11 15:25:07;;;;;;;4.60;0.68;;;;;;;;;;4934479;28;20039;-58
2021/05/11 15:27:34;;;;;;;2.10;0.60;;;;;;;;;;4936385;29;20300;-59
2021/05/11 15:30:00;;;;;;;3.63;0.52;;;;;;;;;;4935631;28;20057;-59
2021/05/11 15:32:38;;;;;;;1.75;0.57;;;;;;;;;;4934627;28;20406;-60
2021/05/11 15:35:06;;;;;;;7.57;1.67;;;;;;;;;;4935018;28;20051;-60
2021/05/11 15:37:32;;;;;;;7.90;1.10;;;;;;;;;;4935676;28;20516;-60
2021/05/11 15:39:58;;;;;;;3.20;0.80;;;;;;;;;;4934921;29;20043;-60
2021/05/11 15:42:24;;;;;;;3.20;0.70;;;;;;;;;;4933485;29;20047;-59
2021/05/11 15:44:49;;;;;;;3.35;0.75;;;;;;;;;;4935423;29;20066;-62
2021/05/11 15:47:15;;;;;;;3.28;0.73;;;;;;;;;;4935700;28;20047;-58
2021/05/11 15:49:44;;;;;;;2.88;0.70;;;;;;;;;;4934099;28;20035;-58
2021/05/11 15:52:10;;;;;;;3.03;0.73;;;;;;;;;;4934877;28;20043;-59
2021/05/11 15:54:36;;;;;;;2.50;0.60;;;;;;;;;;4934316;28;20102;-60
2021/05/11 15:57:02;;;;;;;2.60;0.80;;;;;;;;;;4933427;28;20511;-59
2021/05/11 15:59:28;;;;;;;4.25;1.00;;;;;;;;;;4934557;29;20044;-59
2021/05/11 16:01:54;;;;;;;3.85;0.80;;;;;;;;;;4929502;29;20102;-60
2021/05/11 16:04:20;;;;;;;8.43;1.20;;;;;;;;;;4934885;29;20637;-60
2021/05/11 16:06:46;;;;;;;2.03;0.60;;;;;;;;;;4934398;29;20039;-60
2021/05/11 16:09:12;;;;;;;3.58;0.70;;;;;;;;;;4934125;29;20056;-60
2021/05/11 16:11:38;;;;;;;5.20;0.80;;;;;;;;;;4934888;28;20058;-60
2021/05/11 16:14:04;;;;;;;3.38;0.80;;;;;;;;;;4936337;29;20114;-60
2021/05/11 16:16:31;;;;;;;3.10;0.75;;;;;;;;;;4935005;28;20050;-60
2021/05/11 16:18:57;;;;;;;2.88;0.90;;;;;;;;;;4936200;28;20047;-61
2021/05/11 16:21:23;;;;;;;3.28;1.00;;;;;;;;;;4933610;28;20051;-58
2021/05/11 16:23:49;;;;;;;7.30;1.00;;;;;;;;;;4934455;29;20150;-59
2021/05/11 16:26:15;;;;;;;2.28;0.70;;;;;;;;;;4934407;28;20043;-60
2021/05/11 16:28:41;;;;;;;2.67;0.80;;;;;;;;;;4934669;28;20121;-60
2021/05/11 16:31:06;;;;;;;2.90;0.80;;;;;;;;;;4934730;29;20659;-60
2021/05/11 16:33:32;;;;;;;2.90;0.88;;;;;;;;;;4932706;29;20043;-60
2021/05/11 16:35:58;;;;;;;2.50;0.70;;;;;;;;;;4934251;29;20044;-62
2021/05/11 16:38:24;;;;;;;2.47;0.65;;;;;;;;;;4934997;28;20516;-60
2021/05/11 16:40:50;;;;;;;4.07;0.70;;;;;;;;;;4933351;28;20054;-60
2021/05/11 16:43:16;;;;;;;4.30;1.00;;;;;;;;;;4934565;29;20123;-60
2021/05/11 16:45:42;;;;;;;1.83;0.63;;;;;;;;;;4933954;28;20433;-60
2021/05/11 16:48:08;;;;;;;1.13;0.40;;;;;;;;;;4936904;28;20058;-61
2021/05/11 16:50:35;;;;;;;2.97;0.70;;;;;;;;;;4935241;28;20062;-58
2021/05/11 16:53:02;;;;;;;3.67;1.38;;;;;;;;;;4934397;28;20110;-59
2021/05/11 16:55:29;;;;;;;1.70;0.55;;;;;;;;;;4936161;28;20118;-60
2021/05/11 16:57:58;;;;;;;2.33;0.60;;;;;;;;;;4934757;29;20208;-60
2021/05/11 17:00:25;;;;;;;2.17;0.63;;;;;;;;;;4934209;29;20106;-60
2021/05/11 17:02:51;;;;;;;3.28;0.80;;;;;;;;;;4927489;29;20031;-60
2021/05/11 17:05:19;;;;;;;2.40;0.80;;;;;;;;;;4926410;29;20067;-60
2021/05/11 17:07:46;;;;;;;3.28;0.90;;;;;;;;;;4934074;28;20073;-59
2021/05/11 17:10:12;;;;;;;4.00;0.68;;;;;;;;;;4933718;28;20070;-60
2021/05/11 17:12:38;;;;;;;2.80;0.88;;;;;;;;;;4933726;29;20051;-59
2021/05/11 17:15:05;;;;;;;2.50;0.80;;;;;;;;;;4933509;28;20036;-60
2021/05/11 17:17:31;;;;;;;3.13;0.70;;;;;;;;;;4933057;29;20038;-60
2021/05/11 17:19:57;;;;;;;3.78;0.93;;;;;;;;;;4926993;29;20043;-60
2021/05/11 17:22:23;;;;;;;3.03;0.63;;;;;;;;;;4934809;28;20043;-61
2021/05/11 17:24:49;;;;;;;2.22;0.60;;;;;;;;;;4935191;28;20115;-61
2021/05/11 17:27:18;;;;;;;1.75;0.60;;;;;;;;;;4935138;28;20047;-60
2021/05/11 17:29:44;;;;;;;2.40;0.50;;;;;;;;;;4920718;29;20098;-61
2021/05/11 17:32:15;;;;;;;2.70;0.68;;;;;;;;;;4935253;28;20634;-59
2021/05/11 17:34:41;;;;;;;1.27;0.40;;;;;;;;;;4937300;28;20058;-61
2021/05/11 17:37:07;;;;;;;2.22;0.60;;;;;;;;;;4941770;29;20059;-60
2021/05/11 17:39:33;;;;;;;3.30;0.60;;;;;;;;;;4941683;28;20119;-59
2021/05/11 17:42:01;;;;;;;2.67;0.50;;;;;;;;;;4940341;29;20110;-60
2021/05/11 17:44:27;;;;;;;5.47;0.70;;;;;;;;;;4940266;28;20090;-62
2021/05/11 17:46:53;;;;;;;2.90;0.60;;;;;;;;;;4937015;28;20501;-61
2021/05/11 17:49:19;;;;;;;2.42;0.60;;;;;;;;;;4935566;29;20039;-62
2021/05/11 17:51:45;;;;;;;8.35;0.82;;;;;;;;;;4938736;28;20051;-59
2021/05/11 17:54:10;;;;;;;3.10;0.70;;;;;;;;;;4937968;29;20490;-62
2021/05/11 17:56:36;;;;;;;2.00;0.60;;;;;;;;;;4939988;29;20058;-60
2021/05/11 17:59:02;;;;;;;2.17;0.70;;;;;;;;;;4937631;29;20426;-60
2021/05/11 18:01:28;;;;;;;2.80;0.70;;;;;;;;;;4935547;29;20149;-60
2021/05/11 18:03:55;;;;;;;2.58;0.52;;;;;;;;;;4937364;29;20090;-60
2021/05/11 18:06:22;;;;;;;1.60;0.50;;;;;;;;;;4935551;28;20064;-60
2021/05/11 18:08:48;;;;;;;3.42;0.60;;;;;;;;;;4938241;28;20541;-61
2021/05/11 18:11:14;;;;;;;4.55;0.70;;;;;;;;;;4937986;28;20063;-58
2021/05/11 18:13:40;;;;;;;2.20;0.80;;;;;;;;;;4935010;28;20080;-59
2021/05/11 18:16:09;;;;;;;2.65;0.70;;;;;;;;;;4937416;28;20494;-60
2021/05/11 18:18:35;;;;;;;14.90;1.23;;;;;;;;;;4937682;28;20044;-60
2021/05/11 18:21:01;;;;;;;11.57;1.25;;;;;;;;;;4930142;28;20047;-59
2021/05/11 18:23:27;;;;;;;3.65;0.90;;;;;;;;;;4934101;28;20562;-60
2021/05/11 18:25:53;;;;;;;3.72;0.90;;;;;;;;;;4937527;28;20039;-56
2021/05/11 18:28:19;;;;;;;3.90;0.63;;;;;;;;;;4937642;28;20418;-59
2021/05/11 18:30:45;;;;;;;3.03;0.63;;;;;;;;;;4936181;29;20070;-60
2021/05/11 18:33:12;;;;;;;2.80;0.65;;;;;;;;;;4939082;28;20450;-60
2021/05/11 18:35:39;;;;;;;1.85;0.60;;;;;;;;;;4935817;28;22389;-59
2021/05/11 18:38:07;;;;;;;8.20;0.70;;;;;;;;;;4937892;29;20047;-58
2021/05/11 18:40:33;;;;;;;2.08;0.55;;;;;;;;;;4937150;28;21931;-59
2021/05/11 18:43:00;;;;;;;3.75;0.63;;;;;;;;;;4936868;28;20043;-59
2021/05/11 18:45:26;;;;;;;5.80;0.75;;;;;;;;;;4934902;28;20470;-59
2021/05/11 18:47:58;;;;;;;4.85;0.73;;;;;;;;;;4936783;29;20044;-60